Time;durP1;ratioP1;P1;durP2;ratioP2;P2;SDS_P1;SDS_P2;PMS_P1;PMS_P2;Temp;Humidity;BMP_temperature;BMP_pressure;BME280_temperature;BME280_humidity;BME280_pressure;Samples;Min_cycle;Max_cycle;Signal;HPM_P1;HPM_P2
2021/09/16 00:00:54;;;;;;;2.80;1.60;;;18.20;99.90;;;;;;5119248;28;20413;-38
2021/09/16 00:03:20;;;;;;;1.83;1.60;;;18.20;99.90;;;;;;5118802;28;20171;-38
2021/09/16 00:05:46;;;;;;;2.80;2.20;;;18.20;99.90;;;;;;5118406;28;20757;-40
2021/09/16 00:08:11;;;;;;;2.33;1.80;;;18.20;99.90;;;;;;5101313;28;20218;-40
2021/09/16 00:10:37;;;;;;;2.93;2.10;;;18.20;99.90;;;;;;5118482;28;20228;-38
2021/09/16 00:13:03;;;;;;;2.20;1.67;;;18.10;99.90;;;;;;5100761;28;20176;-37
2021/09/16 00:15:29;;;;;;;3.73;1.83;;;18.10;99.90;;;;;;5118852;28;20523;-39
2021/09/16 00:17:54;;;;;;;3.37;2.20;;;18.10;99.90;;;;;;5119050;28;20425;-37
2021/09/16 00:20:20;;;;;;;3.33;1.97;;;18.10;99.90;;;;;;5118512;28;20164;-37
2021/09/16 00:22:46;;;;;;;2.10;1.70;;;18.10;99.90;;;;;;5118764;28;20295;-37
2021/09/16 00:25:11;;;;;;;3.23;1.70;;;18.10;99.90;;;;;;5117660;28;20240;-36
2021/09/16 00:27:37;;;;;;;3.27;1.73;;;18.00;99.90;;;;;;5099701;28;20247;-38
2021/09/16 00:30:04;;;;;;;3.60;1.83;;;18.10;99.90;;;;;;5118301;28;20614;-36
2021/09/16 00:32:29;;;;;;;5.73;2.00;;;18.00;99.90;;;;;;5119394;28;20414;-38
2021/09/16 00:34:55;;;;;;;3.33;1.87;;;18.00;99.90;;;;;;5119314;28;20421;-37
2021/09/16 00:37:21;;;;;;;2.63;1.53;;;18.00;99.90;;;;;;5118038;28;20167;-38
2021/09/16 00:39:47;;;;;;;3.40;1.40;;;17.90;99.90;;;;;;5118200;28;20274;-37
2021/09/16 00:42:16;;;;;;;1.70;1.30;;;17.90;99.90;;;;;;5117794;28;20472;-40
2021/09/16 00:44:42;;;;;;;4.15;2.15;;;17.90;99.90;;;;;;5118449;28;20849;-37
2021/09/16 00:47:08;;;;;;;2.93;1.43;;;17.90;99.90;;;;;;5118241;28;20186;-36
2021/09/16 00:49:33;;;;;;;2.10;1.63;;;17.90;99.90;;;;;;5118160;28;20410;-38
2021/09/16 00:52:00;;;;;;;2.97;1.73;;;17.90;99.90;;;;;;5118124;28;20551;-38
2021/09/16 00:54:27;;;;;;;4.10;2.10;;;17.90;99.90;;;;;;5118350;28;20314;-37
2021/09/16 00:56:53;;;;;;;1.80;1.50;;;17.90;99.90;;;;;;5100333;28;20505;-37
2021/09/16 00:59:21;;;;;;;2.00;1.60;;;18.00;99.90;;;;;;5100392;28;20488;-37
2021/09/16 01:01:47;;;;;;;1.70;1.60;;;18.00;99.90;;;;;;5118364;28;20425;-37
2021/09/16 01:04:13;;;;;;;2.13;1.80;;;18.00;99.90;;;;;;5100422;28;20510;-37
2021/09/16 01:06:39;;;;;;;2.23;1.80;;;18.00;99.90;;;;;;5117966;28;20581;-38
2021/09/16 01:09:04;;;;;;;1.77;1.50;;;18.10;99.90;;;;;;5117945;28;20168;-37
2021/09/16 01:11:30;;;;;;;2.50;1.53;;;18.10;99.90;;;;;;5118180;28;20286;-37
2021/09/16 01:13:57;;;;;;;1.90;1.63;;;18.20;99.90;;;;;;5118107;28;20256;-39
2021/09/16 01:16:23;;;;;;;1.70;1.50;;;18.20;99.90;;;;;;5099526;28;20270;-41
2021/09/16 01:18:49;;;;;;;1.60;1.50;;;18.20;99.90;;;;;;5118320;28;20496;-36
2021/09/16 01:21:14;;;;;;;2.30;1.53;;;18.20;99.90;;;;;;5118051;28;20546;-37
2021/09/16 01:23:40;;;;;;;2.67;1.53;;;18.20;99.90;;;;;;5117974;28;20180;-38
2021/09/16 01:29:27;;;;;;;3.37;1.73;;;18.10;99.90;;;;;;5117603;28;20672;-38
2021/09/16 01:31:53;;;;;;;2.10;1.37;;;18.00;99.90;;;;;;5117636;28;20465;-37
2021/09/16 01:34:19;;;;;;;2.00;1.40;;;18.00;99.90;;;;;;5118017;28;20433;-36
2021/09/16 01:36:46;;;;;;;1.83;1.50;;;18.00;99.90;;;;;;5117684;28;20621;-38
2021/09/16 01:39:14;;;;;;;2.00;1.67;;;17.90;99.90;;;;;;5117784;28;20409;-39
2021/09/16 01:41:40;;;;;;;3.57;1.87;;;17.90;99.90;;;;;;5118036;28;20831;-36
2021/09/16 01:44:05;;;;;;;3.30;2.17;;;17.90;99.90;;;;;;5117893;28;20428;-37
2021/09/16 01:46:31;;;;;;;1.83;1.50;;;17.90;99.90;;;;;;5117441;28;20557;-37
2021/09/16 01:49:03;;;;;;;3.30;1.90;;;17.90;99.90;;;;;;5117842;28;20179;-38
2021/09/16 01:51:29;;;;;;;2.70;1.53;;;18.00;99.90;;;;;;5117910;28;20218;-36
2021/09/16 01:53:55;;;;;;;2.23;1.70;;;18.00;99.90;;;;;;5118048;28;20421;-37
2021/09/16 01:56:20;;;;;;;2.10;1.60;;;17.90;99.90;;;;;;5120980;28;20573;-38
2021/09/16 01:58:46;;;;;;;1.70;1.37;;;18.00;99.90;;;;;;5121479;28;20172;-46
2021/09/16 02:01:13;;;;;;;2.07;1.30;;;18.00;99.90;;;;;;5121456;28;20723;-46
2021/09/16 02:03:38;;;;;;;1.83;1.63;;;18.00;99.90;;;;;;5121047;28;20421;-46
2021/09/16 02:06:04;;;;;;;1.90;1.57;;;17.90;99.90;;;;;;5121373;28;20422;-46
2021/09/16 02:08:30;;;;;;;2.00;1.60;;;18.00;99.90;;;;;;5121324;28;20622;-46
2021/09/16 02:10:55;;;;;;;1.90;1.70;;;18.00;99.90;;;;;;5120766;28;20473;-46
2021/09/16 02:13:21;;;;;;;2.13;1.77;;;18.00;99.90;;;;;;5120702;28;20232;-46
2021/09/16 02:15:46;;;;;;;3.47;1.67;;;18.00;99.90;;;;;;5121130;28;20180;-46
2021/09/16 02:18:12;;;;;;;2.73;2.10;;;18.10;99.90;;;;;;5120594;28;20470;-46
2021/09/16 02:20:38;;;;;;;2.50;1.65;;;18.10;99.90;;;;;;5120445;28;20183;-46
2021/09/16 02:23:04;;;;;;;1.87;1.47;;;18.00;99.90;;;;;;5120454;28;20566;-46
2021/09/16 02:25:30;;;;;;;1.77;1.60;;;18.00;99.90;;;;;;5102445;28;20180;-46
2021/09/16 02:27:55;;;;;;;2.17;1.60;;;18.00;99.90;;;;;;5120887;28;20410;-46
2021/09/16 02:30:21;;;;;;;2.10;1.87;;;18.00;99.90;;;;;;5120688;28;20468;-46
2021/09/16 02:32:47;;;;;;;1.60;1.50;;;17.90;99.90;;;;;;5120381;28;20168;-46
2021/09/16 02:35:13;;;;;;;2.17;1.80;;;17.90;99.90;;;;;;5120569;28;20199;-46
2021/09/16 02:37:39;;;;;;;2.47;1.90;;;18.00;99.90;;;;;;5120596;28;20239;-46
2021/09/16 02:40:07;;;;;;;2.27;1.90;;;18.00;99.90;;;;;;5120484;28;20401;-46
2021/09/16 02:42:33;;;;;;;3.10;1.97;;;18.00;99.90;;;;;;5120709;28;20698;-46
2021/09/16 02:44:59;;;;;;;4.15;2.08;;;18.00;99.90;;;;;;5120281;28;20488;-46
2021/09/16 02:47:25;;;;;;;2.47;1.40;;;18.10;99.90;;;;;;5120656;28;20274;-46
2021/09/16 02:49:50;;;;;;;1.83;1.50;;;18.00;99.90;;;;;;5120031;28;20179;-46
2021/09/16 02:52:16;;;;;;;2.13;1.93;;;17.90;99.90;;;;;;5120264;28;20546;-46
2021/09/16 02:54:41;;;;;;;3.07;1.93;;;17.90;99.90;;;;;;5120062;28;20521;-46
2021/09/16 02:57:07;;;;;;;3.00;2.13;;;17.90;99.90;;;;;;5119519;28;20606;-46
2021/09/16 02:59:33;;;;;;;2.00;1.43;;;17.90;99.90;;;;;;5120334;28;20606;-46
2021/09/16 03:01:58;;;;;;;3.67;1.90;;;17.90;99.90;;;;;;5101921;28;20253;-46
2021/09/16 03:04:24;;;;;;;2.17;1.63;;;17.90;99.90;;;;;;5102204;28;20203;-46
2021/09/16 03:06:50;;;;;;;3.13;2.73;;;17.90;99.90;;;;;;5119330;28;20180;-46
2021/09/16 03:09:15;;;;;;;2.80;1.93;;;18.00;99.90;;;;;;5120118;28;20176;-46
2021/09/16 03:11:41;;;;;;;2.20;1.83;;;18.00;99.90;;;;;;5119662;28;20215;-47
2021/09/16 03:14:06;;;;;;;2.90;2.03;;;18.00;99.90;;;;;;5119834;28;20520;-46
2021/09/16 03:16:32;;;;;;;2.07;1.70;;;18.00;99.90;;;;;;5119886;28;20568;-46
2021/09/16 03:18:58;;;;;;;2.47;2.20;;;18.00;99.90;;;;;;5119605;28;20421;-46
2021/09/16 03:21:23;;;;;;;2.30;2.00;;;18.00;99.90;;;;;;5119509;28;20534;-46
2021/09/16 03:23:49;;;;;;;2.40;2.20;;;17.90;99.90;;;;;;5119226;28;21136;-46
2021/09/16 03:26:15;;;;;;;3.30;1.97;;;17.90;99.90;;;;;;5119447;28;20171;-46
2021/09/16 03:28:40;;;;;;;2.60;1.83;;;18.00;99.90;;;;;;5119899;28;20264;-46
2021/09/16 03:31:07;;;;;;;2.97;1.90;;;18.00;99.90;;;;;;5119202;28;20211;-46
2021/09/16 03:33:33;;;;;;;2.23;1.60;;;18.00;99.90;;;;;;5119513;28;20500;-46
2021/09/16 03:35:59;;;;;;;3.20;2.23;;;18.00;99.90;;;;;;5118796;28;20428;-46
2021/09/16 03:38:25;;;;;;;2.63;1.83;;;18.10;99.90;;;;;;5118497;28;20410;-46
2021/09/16 03:40:51;;;;;;;3.27;2.10;;;18.10;99.90;;;;;;5117980;28;20190;-46
2021/09/16 03:43:17;;;;;;;2.40;1.80;;;18.10;99.90;;;;;;5118046;28;20410;-46
2021/09/16 03:45:42;;;;;;;2.22;1.98;;;18.00;99.90;;;;;;5117878;28;20183;-46
2021/09/16 03:48:08;;;;;;;2.78;2.20;;;17.90;99.90;;;;;;5118443;28;20183;-46
2021/09/16 03:50:34;;;;;;;2.27;1.97;;;17.90;99.90;;;;;;5118802;28;20203;-46
2021/09/16 03:53:00;;;;;;;4.63;2.20;;;17.80;99.90;;;;;;5118734;28;20233;-46
2021/09/16 03:55:26;;;;;;;2.90;1.87;;;17.90;99.90;;;;;;5118449;28;20559;-46
2021/09/16 03:57:52;;;;;;;3.30;2.40;;;17.90;99.90;;;;;;5119582;28;20502;-46
2021/09/16 04:00:18;;;;;;;2.60;2.40;;;17.90;99.90;;;;;;5118936;28;20447;-46
2021/09/16 04:02:44;;;;;;;2.70;1.70;;;18.00;99.90;;;;;;5118823;28;20191;-47
2021/09/16 04:05:09;;;;;;;2.20;1.90;;;18.00;99.90;;;;;;5118687;28;20432;-47
2021/09/16 04:07:35;;;;;;;2.83;2.50;;;18.00;99.90;;;;;;5119352;28;20496;-47
2021/09/16 04:10:01;;;;;;;4.13;2.40;;;18.10;99.90;;;;;;5117555;28;20179;-47
2021/09/16 04:12:26;;;;;;;2.30;2.00;;;18.10;99.90;;;;;;5118614;28;20176;-47
2021/09/16 04:14:52;;;;;;;3.00;2.40;;;18.10;99.90;;;;;;5118406;28;20266;-47
2021/09/16 04:17:18;;;;;;;3.60;2.20;;;18.10;99.90;;;;;;5116239;28;20219;-47
2021/09/16 04:19:44;;;;;;;3.33;2.33;;;18.10;99.90;;;;;;5116782;28;20410;-47
2021/09/16 04:22:09;;;;;;;4.90;2.77;;;18.00;99.90;;;;;;5116584;28;20724;-47
2021/09/16 04:24:35;;;;;;;2.40;2.20;;;18.00;99.90;;;;;;5116523;28;20516;-47
2021/09/16 04:27:01;;;;;;;2.57;2.37;;;17.90;99.90;;;;;;5116328;28;20203;-47
2021/09/16 04:29:26;;;;;;;2.40;2.20;;;17.90;99.90;;;;;;5116582;28;20211;-47
2021/09/16 04:31:52;;;;;;;3.40;2.60;;;17.80;99.90;;;;;;5117379;28;20203;-47
2021/09/16 04:34:17;;;;;;;3.10;2.67;;;17.80;99.90;;;;;;5117698;28;20514;-47
2021/09/16 04:36:43;;;;;;;3.70;2.10;;;17.80;99.90;;;;;;5116540;28;20206;-46
2021/09/16 04:39:09;;;;;;;5.43;3.00;;;17.80;99.90;;;;;;5116590;28;20186;-48
2021/09/16 04:41:34;;;;;;;3.47;2.33;;;17.80;99.90;;;;;;5098612;28;20629;-47
2021/09/16 04:44:00;;;;;;;2.47;2.10;;;17.70;99.90;;;;;;5116525;28;20172;-47
2021/09/16 04:46:26;;;;;;;2.70;2.50;;;17.80;99.90;;;;;;5116839;28;20182;-47
2021/09/16 04:48:51;;;;;;;3.60;2.67;;;17.80;99.90;;;;;;5117768;28;20172;-47
2021/09/16 04:51:17;;;;;;;2.90;2.57;;;17.90;99.90;;;;;;5117348;28;20246;-46
2021/09/16 04:53:43;;;;;;;3.40;2.30;;;17.80;99.90;;;;;;5117102;28;20177;-47
2021/09/16 04:56:08;;;;;;;2.73;2.50;;;17.80;99.90;;;;;;5116565;28;20464;-47
2021/09/16 04:58:34;;;;;;;4.63;2.90;;;17.90;99.90;;;;;;5116802;28;20430;-46
2021/09/16 05:01:00;;;;;;;4.50;2.23;;;17.90;99.90;;;;;;5116357;28;20194;-47
2021/09/16 05:03:25;;;;;;;4.73;2.63;;;17.90;99.90;;;;;;5115719;28;20180;-47
2021/09/16 05:05:51;;;;;;;4.10;2.83;;;17.90;99.90;;;;;;5117743;28;20686;-46
2021/09/16 05:08:17;;;;;;;4.60;3.03;;;17.90;99.90;;;;;;5136150;27;20185;-47
2021/09/16 05:10:43;;;;;;;2.90;2.60;;;18.00;99.90;;;;;;5136029;27;20202;-47
2021/09/16 05:13:09;;;;;;;4.47;2.27;;;17.90;99.90;;;;;;5136960;27;20416;-47
2021/09/16 05:15:35;;;;;;;2.90;2.60;;;17.90;99.90;;;;;;5136929;27;20416;-46
2021/09/16 05:18:01;;;;;;;4.10;2.90;;;17.90;99.90;;;;;;5137319;27;20497;-47
2021/09/16 05:20:26;;;;;;;4.83;3.03;;;17.90;99.90;;;;;;5118193;27;20456;-46
2021/09/16 05:22:52;;;;;;;3.87;2.80;;;17.80;99.90;;;;;;5136153;27;20179;-47
2021/09/16 05:25:18;;;;;;;4.00;2.70;;;17.80;99.90;;;;;;5136832;27;20629;-47
2021/09/16 05:27:43;;;;;;;2.90;2.50;;;17.70;99.90;;;;;;5137346;27;20472;-46
2021/09/16 05:30:10;;;;;;;3.70;3.40;;;17.70;99.90;;;;;;5139867;27;20240;-46
2021/09/16 05:32:37;;;;;;;5.10;2.73;;;17.70;99.90;;;;;;5139886;27;20221;-46
2021/09/16 05:35:05;;;;;;;4.40;2.63;;;17.70;99.90;;;;;;5121156;27;20424;-47
2021/09/16 05:37:30;;;;;;;5.03;3.03;;;17.60;99.90;;;;;;5140162;27;20182;-46
2021/09/16 05:39:56;;;;;;;4.03;2.70;;;17.70;99.90;;;;;;5140027;27;20408;-45
2021/09/16 05:42:22;;;;;;;3.50;2.50;;;17.60;99.90;;;;;;5139611;27;20724;-46
2021/09/16 05:44:48;;;;;;;3.23;2.93;;;17.60;99.90;;;;;;5139056;27;20451;-48
2021/09/16 05:47:13;;;;;;;4.17;3.40;;;17.60;99.90;;;;;;5120383;27;20514;-46
2021/09/16 05:49:39;;;;;;;3.23;2.93;;;17.60;99.90;;;;;;5138556;27;20171;-46
2021/09/16 05:52:05;;;;;;;3.93;3.10;;;17.60;99.90;;;;;;5119904;27;20500;-47
2021/09/16 05:54:31;;;;;;;3.27;2.80;;;17.70;99.90;;;;;;5137241;27;20215;-48
2021/09/16 05:56:56;;;;;;;4.60;2.90;;;17.70;99.90;;;;;;5138263;27;20707;-47
2021/09/16 05:59:22;;;;;;;2.90;2.17;;;17.80;99.90;;;;;;5138358;27;20203;-47
2021/09/16 06:01:47;;;;;;;4.00;2.77;;;17.90;99.90;;;;;;5122898;27;20250;-47
2021/09/16 06:04:13;;;;;;;3.10;2.20;;;18.00;99.90;;;;;;5140466;27;20199;-47
2021/09/16 06:06:39;;;;;;;2.97;2.60;;;18.20;99.90;;;;;;5141117;27;20183;-47
2021/09/16 06:09:05;;;;;;;2.60;2.10;;;18.30;99.90;;;;;;5141113;27;20794;-47
2021/09/16 06:11:31;;;;;;;3.00;2.40;;;18.50;99.90;;;;;;5140493;27;20480;-47
2021/09/16 06:13:57;;;;;;;3.10;2.80;;;18.60;99.90;;;;;;5141296;27;20412;-47
2021/09/16 06:16:23;;;;;;;4.90;2.40;;;18.70;99.90;;;;;;5139696;27;20183;-47
2021/09/16 06:18:49;;;;;;;2.50;2.20;;;18.80;99.90;;;;;;5119593;27;20230;-47
2021/09/16 06:21:15;;;;;;;3.10;2.33;;;18.90;99.90;;;;;;5139989;27;20439;-47
2021/09/16 06:23:41;;;;;;;2.90;2.17;;;18.90;99.90;;;;;;5140131;27;20710;-53
2021/09/16 06:26:07;;;;;;;4.17;2.70;;;18.90;99.90;;;;;;5140652;27;20488;-47
2021/09/16 06:28:32;;;;;;;3.30;2.47;;;18.90;99.90;;;;;;5139640;27;20179;-47
2021/09/16 06:30:58;;;;;;;4.40;2.50;;;19.00;99.90;;;;;;5137520;27;20242;-47
2021/09/16 06:33:24;;;;;;;2.90;2.20;;;19.00;99.90;;;;;;5120631;27;20186;-47
2021/09/16 06:35:49;;;;;;;3.13;2.70;;;19.00;99.90;;;;;;5138126;27;20269;-47
2021/09/16 06:38:15;;;;;;;3.50;2.50;;;19.00;99.90;;;;;;5138596;27;20163;-47
2021/09/16 06:40:41;;;;;;;4.10;2.40;;;19.00;99.90;;;;;;5138509;27;20192;-48
2021/09/16 06:43:07;;;;;;;3.70;2.60;;;19.00;99.90;;;;;;5139612;27;20198;-48
2021/09/16 06:45:34;;;;;;;4.17;2.40;;;19.00;99.90;;;;;;5137241;27;20432;-48
2021/09/16 06:48:00;;;;;;;2.77;2.20;;;19.00;99.90;;;;;;5136998;27;20715;-47
2021/09/16 06:50:26;;;;;;;3.50;2.60;;;18.90;99.90;;;;;;5119477;27;20743;-47
2021/09/16 06:52:51;;;;;;;3.63;2.40;;;18.90;99.90;;;;;;5137254;27;20181;-47
2021/09/16 06:55:17;;;;;;;3.60;2.50;;;19.10;99.90;;;;;;5137411;27;20223;-47
2021/09/16 06:57:43;;;;;;;2.23;2.03;;;19.30;99.90;;;;;;5137850;27;20263;-47
2021/09/16 07:00:09;;;;;;;2.00;1.60;;;19.60;99.90;;;;;;5137297;27;20618;-47
2021/09/16 07:02:35;;;;;;;3.17;2.53;;;19.90;99.90;;;;;;5139098;27;20280;-47
2021/09/16 07:05:01;;;;;;;2.30;2.10;;;20.10;99.90;;;;;;5137826;27;20876;-47
2021/09/16 07:07:27;;;;;;;4.00;2.23;;;20.40;99.90;;;;;;5139625;27;20718;-46
2021/09/16 07:09:53;;;;;;;2.50;2.20;;;20.50;99.90;;;;;;5139453;27;20437;-48
2021/09/16 07:12:19;;;;;;;3.33;2.20;;;20.50;99.90;;;;;;5137868;27;20225;-47
2021/09/16 07:14:45;;;;;;;2.20;1.80;;;20.50;99.90;;;;;;5137066;27;20766;-47
2021/09/16 07:17:11;;;;;;;2.23;1.73;;;20.50;99.90;;;;;;5137082;27;20182;-47
2021/09/16 07:19:36;;;;;;;2.43;2.20;;;20.50;99.90;;;;;;5119031;27;20230;-47
2021/09/16 07:22:05;;;;;;;2.70;2.33;;;20.50;99.90;;;;;;5135604;27;20599;-47
2021/09/16 07:24:31;;;;;;;2.30;1.90;;;20.40;99.90;;;;;;5136554;27;20206;-47
2021/09/16 07:26:56;;;;;;;3.10;2.10;;;20.40;99.90;;;;;;5134754;27;20838;-47
2021/09/16 07:29:23;;;;;;;2.63;2.00;;;20.30;99.90;;;;;;5136392;27;20175;-48
2021/09/16 07:31:50;;;;;;;5.07;3.03;;;20.20;99.90;;;;;;5137516;27;20555;-47
2021/09/16 07:34:18;;;;;;;3.37;2.40;;;20.10;99.90;;;;;;5138132;27;20682;-47
2021/09/16 07:36:44;;;;;;;4.87;3.17;;;20.00;99.90;;;;;;5138028;27;20413;-47
2021/09/16 07:39:11;;;;;;;7.97;3.20;;;19.90;99.90;;;;;;5119233;27;20877;-47
2021/09/16 07:41:37;;;;;;;3.80;2.70;;;19.70;99.90;;;;;;5137647;27;20247;-47
2021/09/16 07:44:04;;;;;;;4.93;3.17;;;19.60;99.90;;;;;;5136506;27;20182;-47
2021/09/16 07:46:30;;;;;;;6.03;3.60;;;19.50;99.90;;;;;;5136994;27;20187;-47
2021/09/16 07:48:56;;;;;;;4.17;3.40;;;19.40;99.90;;;;;;5137064;27;20421;-47
2021/09/16 07:51:22;;;;;;;6.97;3.83;;;19.40;99.90;;;;;;5137211;27;20468;-47
2021/09/16 07:53:48;;;;;;;3.27;2.97;;;19.30;99.90;;;;;;5136791;27;20827;-47
2021/09/16 07:56:14;;;;;;;2.70;2.50;;;19.30;99.90;;;;;;5135634;27;20682;-47
2021/09/16 07:58:40;;;;;;;3.60;2.40;;;19.20;99.90;;;;;;5136995;27;20174;-47
2021/09/16 08:01:06;;;;;;;3.47;3.17;;;19.20;99.90;;;;;;5118680;27;20201;-47
2021/09/16 08:03:31;;;;;;;4.10;3.77;;;19.10;99.90;;;;;;5137831;27;20810;-45
2021/09/16 08:05:57;;;;;;;5.03;4.00;;;18.90;99.90;;;;;;5136064;27;20179;-45
2021/09/16 08:08:23;;;;;;;4.30;3.90;;;18.70;99.90;;;;;;5133849;27;20472;-45
2021/09/16 08:10:48;;;;;;;6.30;5.10;;;18.60;99.90;;;;;;5116064;27;20219;-46
2021/09/16 08:13:14;;;;;;;5.57;5.00;;;18.50;99.90;;;;;;5134344;27;20235;-46
2021/09/16 08:15:40;;;;;;;4.80;4.40;;;18.40;99.90;;;;;;5133061;27;20195;-46
2021/09/16 08:18:06;;;;;;;4.37;3.40;;;18.30;99.90;;;;;;5133789;27;20183;-46
2021/09/16 08:20:32;;;;;;;4.00;3.58;;;18.20;99.90;;;;;;5133709;27;20183;-46
2021/09/16 08:22:57;;;;;;;3.13;2.83;;;18.20;99.90;;;;;;5117313;27;20174;-46
2021/09/16 08:25:23;;;;;;;2.50;2.30;;;18.30;99.90;;;;;;5120148;27;20524;-46
2021/09/16 08:27:49;;;;;;;2.73;2.20;;;18.20;99.90;;;;;;5137765;27;20257;-46
2021/09/16 08:30:15;;;;;;;2.50;1.80;;;18.20;99.90;;;;;;5137752;27;20186;-46
2021/09/16 08:32:40;;;;;;;1.70;1.60;;;18.10;99.90;;;;;;5138187;27;20441;-46
2021/09/16 08:35:07;;;;;;;1.80;1.50;;;18.10;99.90;;;;;;5120219;27;20450;-46
2021/09/16 08:37:33;;;;;;;3.57;2.57;;;18.10;99.90;;;;;;5138174;27;20171;-46
2021/09/16 08:39:59;;;;;;;1.80;1.30;;;18.20;99.90;;;;;;5137355;27;20838;-43
2021/09/16 08:42:26;;;;;;;2.00;0.87;;;18.20;99.90;;;;;;5120040;28;20408;-45
2021/09/16 08:44:53;;;;;;;1.00;0.63;;;18.30;99.90;;;;;;5138001;27;20687;-45
2021/09/16 08:47:20;;;;;;;0.90;0.60;;;18.30;99.90;;;;;;5119895;28;20409;-45
2021/09/16 08:49:47;;;;;;;1.20;0.73;;;18.40;99.90;;;;;;5137237;27;20166;-45
2021/09/16 08:52:13;;;;;;;1.53;0.70;;;18.30;99.90;;;;;;5137141;27;20773;-46
2021/09/16 08:54:42;;;;;;;1.67;0.70;;;18.30;99.90;;;;;;5115562;28;20465;-46
2021/09/16 08:57:13;;;;;;;1.13;0.90;;;18.30;99.90;;;;;;5117274;28;20458;-46
2021/09/16 08:59:41;;;;;;;2.03;0.80;;;18.30;99.90;;;;;;5116381;28;20451;-46
2021/09/16 09:02:07;;;;;;;1.40;0.80;;;18.30;99.90;;;;;;5116746;28;20803;-45
2021/09/16 09:04:33;;;;;;;1.63;0.80;;;18.30;99.90;;;;;;5120401;28;20520;-46
2021/09/16 09:07:05;;;;;;;1.17;0.87;;;18.30;99.90;;;;;;5121563;28;20543;-46
2021/09/16 09:09:31;;;;;;;2.50;1.07;;;18.30;99.90;;;;;;5120812;28;20179;-45
2021/09/16 09:12:00;;;;;;;1.63;0.90;;;18.40;99.90;;;;;;5120545;28;20570;-46
2021/09/16 09:14:39;;;;;;;1.50;0.97;;;18.40;99.90;;;;;;5120775;28;20167;-46
2021/09/16 09:17:33;;;;;;;1.60;0.87;;;18.40;99.90;;;;;;5120225;28;20923;-45
2021/09/16 09:20:08;;;;;;;1.60;1.07;;;18.40;99.90;;;;;;5116882;28;20410;-46
2021/09/16 09:22:39;;;;;;;1.87;1.20;;;18.40;99.90;;;;;;5121382;28;20715;-46
2021/09/16 09:25:10;;;;;;;2.77;1.37;;;18.20;99.90;;;;;;5119905;28;20430;-46
2021/09/16 09:27:39;;;;;;;2.50;1.83;;;18.20;99.90;;;;;;5120860;28;20414;-45
2021/09/16 09:30:16;;;;;;;1.90;1.60;;;18.10;99.90;;;;;;5111381;28;20437;-46
2021/09/16 09:32:54;;;;;;;5.50;3.40;;;18.00;99.90;;;;;;5100986;28;20720;-44
2021/09/16 09:35:25;;;;;;;5.93;2.90;;;18.00;99.90;;;;;;5099776;28;20769;-43
2021/09/16 09:37:51;;;;;;;7.23;3.60;;;18.10;99.90;;;;;;5098975;28;20183;-46
2021/09/16 09:40:26;;;;;;;7.43;4.40;;;18.20;99.90;;;;;;5100267;28;20448;-44
2021/09/16 09:42:52;;;;;;;7.33;6.60;;;18.30;99.90;;;;;;5105326;28;20413;-44
2021/09/16 09:45:18;;;;;;;5.20;4.40;;;18.30;99.90;;;;;;5097519;28;20432;-42
2021/09/16 09:47:46;;;;;;;7.33;5.93;;;18.30;99.90;;;;;;5100541;28;20179;-43
2021/09/16 09:50:27;;;;;;;7.03;6.30;;;18.40;99.90;;;;;;5100108;28;20168;-45
2021/09/16 09:53:13;;;;;;;8.90;8.00;;;18.50;99.90;;;;;;5098299;28;20727;-43
2021/09/16 09:55:40;;;;;;;7.57;6.80;;;18.50;99.90;;;;;;5109351;28;20473;-44
2021/09/16 09:58:06;;;;;;;9.13;7.27;;;18.60;99.90;;;;;;5115593;28;20705;-43
2021/09/16 10:00:32;;;;;;;8.80;6.33;;;18.60;99.90;;;;;;5126926;27;20440;-42
2021/09/16 10:02:59;;;;;;;7.40;6.70;;;18.70;99.90;;;;;;5138292;27;20193;-43
2021/09/16 10:05:27;;;;;;;6.70;6.00;;;18.80;99.90;;;;;;5138443;27;20254;-44
2021/09/16 10:07:54;;;;;;;7.00;6.40;;;19.00;99.90;;;;;;5139927;27;20405;-46
2021/09/16 10:10:21;;;;;;;8.20;6.77;;;19.10;99.90;;;;;;5120117;27;20439;-44
2021/09/16 10:12:52;;;;;;;9.45;8.50;;;19.20;99.90;;;;;;5138427;27;20412;-47
2021/09/16 10:15:20;;;;;;;11.37;9.53;;;19.40;99.90;;;;;;5136680;27;20739;-45
2021/09/16 10:17:47;;;;;;;9.23;8.33;;;19.50;99.90;;;;;;5138507;27;20683;-44
2021/09/16 10:20:16;;;;;;;8.80;7.90;;;19.70;99.90;;;;;;5116735;27;20697;-46
2021/09/16 10:22:46;;;;;;;7.63;6.83;;;19.90;99.90;;;;;;5120928;27;20885;-44
2021/09/16 10:25:13;;;;;;;9.03;8.23;;;20.00;99.90;;;;;;5096944;28;20432;-43
2021/09/16 10:27:41;;;;;;;7.80;7.00;;;20.10;99.90;;;;;;5115096;28;20416;-47
2021/09/16 10:30:22;;;;;;;11.45;10.30;;;20.20;99.90;;;;;;5113808;28;20683;-44
2021/09/16 10:33:12;;;;;;;9.93;8.93;;;20.30;99.90;;;;;;5115676;28;20170;-46
2021/09/16 10:35:47;;;;;;;8.53;7.83;;;20.30;99.70;;;;;;5098368;28;20575;-45
2021/09/16 10:38:23;;;;;;;9.80;8.90;;;20.30;99.80;;;;;;5099603;28;20413;-44
2021/09/16 10:41:12;;;;;;;9.67;8.10;;;20.30;99.60;;;;;;5099669;28;20434;-46
2021/09/16 10:43:39;;;;;;;8.70;7.90;;;20.20;99.70;;;;;;5117802;28;20757;-45
2021/09/16 10:46:40;;;;;;;8.63;7.78;;;20.10;99.60;;;;;;5117162;28;20424;-45
2021/09/16 10:49:24;;;;;;;10.70;9.67;;;19.90;99.90;;;;;;5118830;27;20411;-47
2021/09/16 10:52:00;;;;;;;11.20;10.23;;;19.70;99.90;;;;;;5125066;27;20465;-47
2021/09/16 10:54:32;;;;;;;13.57;11.90;;;19.60;99.90;;;;;;5117659;28;20534;-45
2021/09/16 10:57:00;;;;;;;12.50;11.30;;;19.40;99.90;;;;;;5117831;28;20437;-43
2021/09/16 10:59:50;;;;;;;11.80;10.53;;;19.40;99.90;;;;;;5117704;28;20696;-45
2021/09/16 11:02:25;;;;;;;10.20;9.20;;;19.50;99.90;;;;;;5117516;28;20421;-49
2021/09/16 11:04:54;;;;;;;13.00;10.57;;;19.80;99.90;;;;;;5117054;28;20405;-48
2021/09/16 11:07:32;;;;;;;13.33;11.90;;;20.20;99.60;;;;;;5118172;28;20412;-45
2021/09/16 11:10:16;;;;;;;10.57;9.57;;;20.40;99.00;;;;;;5118565;28;20695;-44
2021/09/16 11:12:53;;;;;;;13.97;12.53;;;20.60;98.60;;;;;;5118691;28;20417;-46
2021/09/16 11:15:33;;;;;;;12.73;11.43;;;20.60;98.00;;;;;;5117533;28;20427;-46
2021/09/16 11:18:10;;;;;;;12.27;9.23;;;20.50;98.10;;;;;;5100415;28;21056;-45
2021/09/16 11:20:37;;;;;;;13.27;11.90;;;20.60;98.60;;;;;;5117708;28;20418;-46
2021/09/16 11:23:04;;;;;;;13.77;12.47;;;20.70;97.90;;;;;;5117066;28;20402;-45
2021/09/16 11:25:59;;;;;;;16.40;14.80;;;20.80;97.60;;;;;;5096734;28;20844;-43
2021/09/16 11:28:24;;;;;;;15.17;13.77;;;21.10;97.10;;;;;;5087861;28;20410;-45
2021/09/16 11:30:50;;;;;;;15.27;13.87;;;21.20;96.70;;;;;;5096881;28;20477;-49
2021/09/16 11:33:18;;;;;;;16.70;13.50;;;21.40;96.50;;;;;;5115912;28;20168;-45
2021/09/16 11:35:44;;;;;;;14.40;13.10;;;21.60;96.60;;;;;;5116349;28;20666;-47
2021/09/16 11:38:10;;;;;;;14.77;13.40;;;21.80;96.20;;;;;;5116686;28;20401;-47
2021/09/16 11:40:40;;;;;;;13.93;12.60;;;21.80;96.00;;;;;;5116705;28;20490;-47
2021/09/16 11:43:12;;;;;;;18.07;16.27;;;21.80;95.80;;;;;;5097558;28;20175;-44
2021/09/16 11:45:43;;;;;;;19.87;17.87;;;21.60;95.60;;;;;;5117059;28;20448;-46
2021/09/16 11:48:17;;;;;;;17.77;15.40;;;21.40;95.70;;;;;;5117925;28;20422;-46
2021/09/16 11:50:45;;;;;;;20.33;17.83;;;21.30;96.30;;;;;;5099490;28;20476;-44
2021/09/16 11:53:18;;;;;;;18.13;16.23;;;21.20;96.50;;;;;;5116695;28;20409;-44
2021/09/16 11:55:46;;;;;;;18.97;16.60;;;21.10;96.80;;;;;;5116729;28;20951;-46
2021/09/16 11:58:18;;;;;;;16.52;14.00;;;21.20;96.80;;;;;;5082273;28;20422;-43
2021/09/16 12:00:51;;;;;;;14.80;13.30;;;21.30;96.80;;;;;;5097483;28;20592;-44
2021/09/16 12:03:25;;;;;;;18.13;15.70;;;21.60;96.30;;;;;;5114915;28;20413;-43
2021/09/16 12:05:51;;;;;;;17.90;15.97;;;21.70;95.90;;;;;;5113976;28;20429;-47
2021/09/16 12:08:33;;;;;;;18.03;16.40;;;21.50;95.70;;;;;;5116040;28;20409;-46
2021/09/16 12:11:04;;;;;;;19.83;14.70;;;21.30;95.80;;;;;;5114309;28;20758;-44
2021/09/16 12:13:41;;;;;;;20.70;17.07;;;21.10;96.20;;;;;;5114929;28;20779;-44
2021/09/16 12:16:17;;;;;;;14.87;13.47;;;21.00;96.40;;;;;;5096750;28;20778;-44
2021/09/16 12:18:45;;;;;;;14.00;12.70;;;21.00;96.90;;;;;;5115818;28;20652;-47
2021/09/16 12:21:20;;;;;;;15.47;14.07;;;20.90;96.70;;;;;;5097443;28;20711;-44
2021/09/16 12:23:51;;;;;;;14.30;13.00;;;20.90;96.60;;;;;;5115061;28;20413;-45
2021/09/16 12:26:24;;;;;;;14.47;13.07;;;20.70;96.60;;;;;;5100135;28;20429;-43
2021/09/16 12:28:53;;;;;;;13.47;12.20;;;20.50;96.90;;;;;;5117318;28;20410;-43
2021/09/16 12:31:45;;;;;;;13.17;12.00;;;20.30;97.20;;;;;;5117949;28;20465;-45
2021/09/16 12:34:18;;;;;;;12.50;11.30;;;20.20;97.80;;;;;;5115853;28;20518;-45
2021/09/16 12:36:55;;;;;;;12.45;11.32;;;20.10;97.90;;;;;;5113749;28;20500;-44
2021/09/16 12:39:21;;;;;;;13.30;11.73;;;20.10;98.00;;;;;;5113363;28;20437;-42
2021/09/16 12:41:49;;;;;;;11.98;10.75;;;20.10;97.90;;;;;;5113227;28;20429;-45
2021/09/16 12:44:19;;;;;;;11.60;10.40;;;20.30;98.30;;;;;;5113888;28;20171;-45
2021/09/16 12:46:51;;;;;;;10.75;9.75;;;20.60;97.70;;;;;;5114031;28;20421;-45
2021/09/16 12:49:36;;;;;;;10.70;9.77;;;20.90;97.20;;;;;;5113673;28;20520;-45